sensor_id;sensor_type;location;lat;lon;timestamp;P1;durP1;ratioP1;P2;durP2;ratioP2
61344;SDS011;47216;42.656;23.232;2023-06-04T00:01:59;6.23;;;5.30;;
61344;SDS011;47216;42.656;23.232;2023-06-04T00:04:27;7.80;;;5.20;;
61344;SDS011;47216;42.656;23.232;2023-06-04T00:06:55;7.60;;;4.50;;
61344;SDS011;47216;42.656;23.232;2023-06-04T00:09:22;5.33;;;4.83;;
61344;SDS011;47216;42.656;23.232;2023-06-04T00:11:48;9.57;;;4.93;;
61344;SDS011;47216;42.656;23.232;2023-06-04T00:14:16;7.20;;;4.67;;
61344;SDS011;47216;42.656;23.232;2023-06-04T00:16:43;7.80;;;4.70;;
61344;SDS011;47216;42.656;23.232;2023-06-04T00:19:10;7.40;;;4.67;;
61344;SDS011;47216;42.656;23.232;2023-06-04T00:21:38;10.40;;;5.40;;
61344;SDS011;47216;42.656;23.232;2023-06-04T00:24:05;7.50;;;4.60;;
61344;SDS011;47216;42.656;23.232;2023-06-04T00:26:32;6.37;;;4.93;;
61344;SDS011;47216;42.656;23.232;2023-06-04T00:28:59;7.97;;;4.77;;
61344;SDS011;47216;42.656;23.232;2023-06-04T00:31:27;7.73;;;5.00;;
61344;SDS011;47216;42.656;23.232;2023-06-04T00:33:53;8.03;;;5.37;;
61344;SDS011;47216;42.656;23.232;2023-06-04T00:36:20;6.77;;;5.17;;
61344;SDS011;47216;42.656;23.232;2023-06-04T00:38:49;6.87;;;4.57;;
61344;SDS011;47216;42.656;23.232;2023-06-04T00:41:16;5.00;;;4.50;;
61344;SDS011;47216;42.656;23.232;2023-06-04T00:43:42;5.47;;;4.60;;
61344;SDS011;47216;42.656;23.232;2023-06-04T00:46:11;5.67;;;5.13;;
61344;SDS011;47216;42.656;23.232;2023-06-04T00:48:43;6.00;;;5.13;;
61344;SDS011;47216;42.656;23.232;2023-06-04T00:51:10;9.83;;;5.20;;
61344;SDS011;47216;42.656;23.232;2023-06-04T00:53:37;6.00;;;4.87;;
61344;SDS011;47216;42.656;23.232;2023-06-04T00:56:06;8.17;;;4.90;;
61344;SDS011;47216;42.656;23.232;2023-06-04T00:58:36;6.77;;;5.10;;
61344;SDS011;47216;42.656;23.232;2023-06-04T01:01:04;6.67;;;5.47;;
61344;SDS011;47216;42.656;23.232;2023-06-04T01:03:36;7.50;;;6.03;;
61344;SDS011;47216;42.656;23.232;2023-06-04T01:06:09;8.27;;;6.40;;
61344;SDS011;47216;42.656;23.232;2023-06-04T01:08:46;18.13;;;6.50;;
61344;SDS011;47216;42.656;23.232;2023-06-04T01:11:16;10.37;;;6.53;;
61344;SDS011;47216;42.656;23.232;2023-06-04T01:13:42;9.13;;;6.77;;
61344;SDS011;47216;42.656;23.232;2023-06-04T01:16:09;14.90;;;7.37;;
61344;SDS011;47216;42.656;23.232;2023-06-04T01:18:39;10.37;;;6.97;;
61344;SDS011;47216;42.656;23.232;2023-06-04T01:21:08;11.63;;;6.87;;
61344;SDS011;47216;42.656;23.232;2023-06-04T01:23:40;12.77;;;7.27;;
61344;SDS011;47216;42.656;23.232;2023-06-04T01:26:24;9.60;;;6.97;;
61344;SDS011;47216;42.656;23.232;2023-06-04T01:28:52;12.83;;;7.83;;
61344;SDS011;47216;42.656;23.232;2023-06-04T01:31:21;8.73;;;6.67;;
61344;SDS011;47216;42.656;23.232;2023-06-04T01:33:50;13.33;;;7.37;;
61344;SDS011;47216;42.656;23.232;2023-06-04T01:36:18;9.40;;;6.57;;
61344;SDS011;47216;42.656;23.232;2023-06-04T01:38:45;10.13;;;6.63;;
61344;SDS011;47216;42.656;23.232;2023-06-04T01:41:12;8.77;;;6.20;;
61344;SDS011;47216;42.656;23.232;2023-06-04T01:43:40;11.10;;;6.57;;
61344;SDS011;47216;42.656;23.232;2023-06-04T01:46:07;8.40;;;7.00;;
61344;SDS011;47216;42.656;23.232;2023-06-04T01:48:34;12.63;;;6.57;;
61344;SDS011;47216;42.656;23.232;2023-06-04T01:51:01;8.93;;;6.10;;
61344;SDS011;47216;42.656;23.232;2023-06-04T01:53:28;10.37;;;6.27;;
61344;SDS011;47216;42.656;23.232;2023-06-04T01:55:55;7.03;;;6.03;;
61344;SDS011;47216;42.656;23.232;2023-06-04T01:58:22;13.53;;;6.10;;
61344;SDS011;47216;42.656;23.232;2023-06-04T02:00:53;7.50;;;5.57;;
61344;SDS011;47216;42.656;23.232;2023-06-04T02:03:21;11.70;;;5.87;;
61344;SDS011;47216;42.656;23.232;2023-06-04T02:05:48;7.03;;;5.00;;
61344;SDS011;47216;42.656;23.232;2023-06-04T02:08:17;7.97;;;5.27;;
61344;SDS011;47216;42.656;23.232;2023-06-04T02:10:45;6.57;;;5.40;;
61344;SDS011;47216;42.656;23.232;2023-06-04T02:13:13;7.10;;;5.20;;
61344;SDS011;47216;42.656;23.232;2023-06-04T02:15:40;5.37;;;4.87;;
61344;SDS011;47216;42.656;23.232;2023-06-04T02:18:12;10.67;;;5.27;;
61344;SDS011;47216;42.656;23.232;2023-06-04T02:20:41;8.47;;;4.50;;
61344;SDS011;47216;42.656;23.232;2023-06-04T02:23:09;6.33;;;5.37;;
61344;SDS011;47216;42.656;23.232;2023-06-04T02:25:35;6.50;;;4.97;;
61344;SDS011;47216;42.656;23.232;2023-06-04T02:28:02;5.77;;;5.10;;
61344;SDS011;47216;42.656;23.232;2023-06-04T02:30:29;5.77;;;5.17;;
61344;SDS011;47216;42.656;23.232;2023-06-04T02:32:56;6.03;;;5.40;;
61344;SDS011;47216;42.656;23.232;2023-06-04T02:35:27;6.23;;;5.63;;
61344;SDS011;47216;42.656;23.232;2023-06-04T02:37:54;8.60;;;5.73;;
61344;SDS011;47216;42.656;23.232;2023-06-04T02:40:23;7.07;;;4.90;;
61344;SDS011;47216;42.656;23.232;2023-06-04T02:42:50;6.73;;;5.23;;
61344;SDS011;47216;42.656;23.232;2023-06-04T02:45:18;4.97;;;4.47;;
61344;SDS011;47216;42.656;23.232;2023-06-04T02:47:44;5.27;;;3.80;;
61344;SDS011;47216;42.656;23.232;2023-06-04T02:50:12;4.10;;;3.60;;
61344;SDS011;47216;42.656;23.232;2023-06-04T02:52:41;4.00;;;3.33;;
61344;SDS011;47216;42.656;23.232;2023-06-04T02:55:08;6.07;;;3.33;;
61344;SDS011;47216;42.656;23.232;2023-06-04T02:57:38;3.83;;;3.20;;
61344;SDS011;47216;42.656;23.232;2023-06-04T03:00:06;2.83;;;2.63;;
61344;SDS011;47216;42.656;23.232;2023-06-04T03:02:37;4.93;;;2.90;;
61344;SDS011;47216;42.656;23.232;2023-06-04T03:05:05;3.40;;;2.83;;
61344;SDS011;47216;42.656;23.232;2023-06-04T03:07:32;3.20;;;2.53;;
61344;SDS011;47216;42.656;23.232;2023-06-04T03:10:00;3.00;;;2.70;;
61344;SDS011;47216;42.656;23.232;2023-06-04T03:12:27;2.73;;;2.53;;
61344;SDS011;47216;42.656;23.232;2023-06-04T03:14:54;4.43;;;2.80;;
61344;SDS011;47216;42.656;23.232;2023-06-04T03:17:20;5.10;;;2.60;;
61344;SDS011;47216;42.656;23.232;2023-06-04T03:19:47;3.00;;;2.57;;
61344;SDS011;47216;42.656;23.232;2023-06-04T03:22:14;2.77;;;2.43;;
61344;SDS011;47216;42.656;23.232;2023-06-04T03:24:41;3.07;;;2.77;;
61344;SDS011;47216;42.656;23.232;2023-06-04T03:27:10;3.43;;;2.33;;
61344;SDS011;47216;42.656;23.232;2023-06-04T03:29:37;3.10;;;2.47;;
61344;SDS011;47216;42.656;23.232;2023-06-04T03:32:04;2.40;;;2.20;;
61344;SDS011;47216;42.656;23.232;2023-06-04T03:34:32;2.83;;;2.53;;
61344;SDS011;47216;42.656;23.232;2023-06-04T03:36:59;2.57;;;2.10;;
61344;SDS011;47216;42.656;23.232;2023-06-04T03:39:26;7.13;;;2.20;;
61344;SDS011;47216;42.656;23.232;2023-06-04T03:41:53;3.13;;;2.37;;
61344;SDS011;47216;42.656;23.232;2023-06-04T03:44:22;4.33;;;2.77;;
61344;SDS011;47216;42.656;23.232;2023-06-04T03:46:49;2.30;;;2.10;;
61344;SDS011;47216;42.656;23.232;2023-06-04T03:49:15;2.70;;;2.37;;
61344;SDS011;47216;42.656;23.232;2023-06-04T03:51:43;5.97;;;2.60;;
61344;SDS011;47216;42.656;23.232;2023-06-04T03:54:09;2.97;;;2.43;;
61344;SDS011;47216;42.656;23.232;2023-06-04T03:56:37;5.40;;;2.53;;
61344;SDS011;47216;42.656;23.232;2023-06-04T03:59:04;4.47;;;2.50;;
61344;SDS011;47216;42.656;23.232;2023-06-04T04:01:32;3.93;;;2.37;;
61344;SDS011;47216;42.656;23.232;2023-06-04T04:03:59;4.07;;;2.17;;
61344;SDS011;47216;42.656;23.232;2023-06-04T04:06:26;3.03;;;2.40;;
61344;SDS011;47216;42.656;23.232;2023-06-04T04:08:53;3.60;;;2.37;;
61344;SDS011;47216;42.656;23.232;2023-06-04T04:11:20;8.50;;;2.57;;
61344;SDS011;47216;42.656;23.232;2023-06-04T04:13:47;5.20;;;2.60;;
61344;SDS011;47216;42.656;23.232;2023-06-04T04:16:14;3.43;;;2.60;;
61344;SDS011;47216;42.656;23.232;2023-06-04T04:18:43;9.67;;;3.13;;
61344;SDS011;47216;42.656;23.232;2023-06-04T04:21:09;3.23;;;2.90;;
61344;SDS011;47216;42.656;23.232;2023-06-04T04:23:37;2.60;;;2.40;;
61344;SDS011;47216;42.656;23.232;2023-06-04T04:26:05;3.10;;;2.80;;
61344;SDS011;47216;42.656;23.232;2023-06-04T04:28:31;2.83;;;2.43;;
61344;SDS011;47216;42.656;23.232;2023-06-04T04:30:59;5.17;;;2.50;;
61344;SDS011;47216;42.656;23.232;2023-06-04T04:33:27;2.73;;;2.50;;
61344;SDS011;47216;42.656;23.232;2023-06-04T04:35:59;3.60;;;2.50;;
61344;SDS011;47216;42.656;23.232;2023-06-04T04:38:26;5.17;;;3.00;;
61344;SDS011;47216;42.656;23.232;2023-06-04T04:40:53;10.53;;;2.93;;
61344;SDS011;47216;42.656;23.232;2023-06-04T04:43:28;4.20;;;3.40;;
61344;SDS011;47216;42.656;23.232;2023-06-04T04:45:55;5.23;;;2.87;;
61344;SDS011;47216;42.656;23.232;2023-06-04T04:48:22;3.20;;;2.73;;
61344;SDS011;47216;42.656;23.232;2023-06-04T04:50:49;3.23;;;2.60;;
61344;SDS011;47216;42.656;23.232;2023-06-04T04:53:17;2.87;;;2.53;;
61344;SDS011;47216;42.656;23.232;2023-06-04T04:55:44;5.10;;;2.77;;
61344;SDS011;47216;42.656;23.232;2023-06-04T04:58:10;2.90;;;2.60;;
61344;SDS011;47216;42.656;23.232;2023-06-04T05:00:37;3.17;;;2.83;;
61344;SDS011;47216;42.656;23.232;2023-06-04T05:03:04;4.87;;;3.10;;
61344;SDS011;47216;42.656;23.232;2023-06-04T05:05:31;3.43;;;2.97;;
61344;SDS011;47216;42.656;23.232;2023-06-04T05:07:58;2.93;;;2.70;;
61344;SDS011;47216;42.656;23.232;2023-06-04T05:10:26;4.07;;;3.37;;
61344;SDS011;47216;42.656;23.232;2023-06-04T05:12:53;7.60;;;3.50;;
61344;SDS011;47216;42.656;23.232;2023-06-04T05:15:21;3.50;;;3.03;;
61344;SDS011;47216;42.656;23.232;2023-06-04T05:17:49;4.30;;;3.60;;
61344;SDS011;47216;42.656;23.232;2023-06-04T05:20:17;5.70;;;3.57;;
61344;SDS011;47216;42.656;23.232;2023-06-04T05:22:44;4.07;;;3.67;;
61344;SDS011;47216;42.656;23.232;2023-06-04T05:25:12;6.43;;;4.03;;
61344;SDS011;47216;42.656;23.232;2023-06-04T05:27:40;4.27;;;3.70;;
61344;SDS011;47216;42.656;23.232;2023-06-04T05:30:08;6.97;;;3.53;;
61344;SDS011;47216;42.656;23.232;2023-06-04T05:32:36;4.40;;;3.90;;
61344;SDS011;47216;42.656;23.232;2023-06-04T05:35:06;4.13;;;3.73;;
61344;SDS011;47216;42.656;23.232;2023-06-04T05:37:35;6.17;;;3.67;;
61344;SDS011;47216;42.656;23.232;2023-06-04T05:40:03;5.83;;;3.90;;
61344;SDS011;47216;42.656;23.232;2023-06-04T05:42:32;5.30;;;4.30;;
61344;SDS011;47216;42.656;23.232;2023-06-04T05:45:00;4.17;;;3.40;;
61344;SDS011;47216;42.656;23.232;2023-06-04T05:47:27;5.77;;;3.80;;
61344;SDS011;47216;42.656;23.232;2023-06-04T05:49:55;5.33;;;3.90;;
61344;SDS011;47216;42.656;23.232;2023-06-04T05:52:22;7.40;;;3.77;;
61344;SDS011;47216;42.656;23.232;2023-06-04T05:54:49;9.67;;;4.20;;
61344;SDS011;47216;42.656;23.232;2023-06-04T05:57:15;4.17;;;3.77;;
61344;SDS011;47216;42.656;23.232;2023-06-04T05:59:42;5.03;;;3.50;;
61344;SDS011;47216;42.656;23.232;2023-06-04T06:02:11;8.30;;;4.07;;
61344;SDS011;47216;42.656;23.232;2023-06-04T06:04:39;4.57;;;3.90;;
61344;SDS011;47216;42.656;23.232;2023-06-04T06:07:05;6.73;;;4.90;;
61344;SDS011;47216;42.656;23.232;2023-06-04T06:09:32;7.60;;;4.33;;
61344;SDS011;47216;42.656;23.232;2023-06-04T06:12:00;7.50;;;4.40;;
61344;SDS011;47216;42.656;23.232;2023-06-04T06:14:28;5.63;;;4.90;;
61344;SDS011;47216;42.656;23.232;2023-06-04T06:16:55;7.60;;;5.40;;
61344;SDS011;47216;42.656;23.232;2023-06-04T06:19:23;5.97;;;5.27;;
61344;SDS011;47216;42.656;23.232;2023-06-04T06:21:51;7.57;;;5.00;;
61344;SDS011;47216;42.656;23.232;2023-06-04T06:24:18;8.17;;;5.00;;
61344;SDS011;47216;42.656;23.232;2023-06-04T06:26:45;5.20;;;4.53;;
61344;SDS011;47216;42.656;23.232;2023-06-04T06:29:11;9.77;;;5.50;;
61344;SDS011;47216;42.656;23.232;2023-06-04T06:31:38;8.23;;;5.57;;
61344;SDS011;47216;42.656;23.232;2023-06-04T06:34:05;7.43;;;5.27;;
61344;SDS011;47216;42.656;23.232;2023-06-04T06:36:33;12.10;;;5.87;;
61344;SDS011;47216;42.656;23.232;2023-06-04T06:39:00;9.07;;;5.20;;
61344;SDS011;47216;42.656;23.232;2023-06-04T06:41:27;7.57;;;5.90;;
61344;SDS011;47216;42.656;23.232;2023-06-04T06:43:55;7.80;;;5.43;;
61344;SDS011;47216;42.656;23.232;2023-06-04T06:46:22;9.43;;;5.77;;
61344;SDS011;47216;42.656;23.232;2023-06-04T06:48:49;8.37;;;5.90;;
61344;SDS011;47216;42.656;23.232;2023-06-04T06:51:16;7.17;;;6.40;;
61344;SDS011;47216;42.656;23.232;2023-06-04T06:53:44;10.73;;;6.87;;
61344;SDS011;47216;42.656;23.232;2023-06-04T06:56:11;13.23;;;7.00;;
61344;SDS011;47216;42.656;23.232;2023-06-04T06:58:38;9.40;;;6.60;;
61344;SDS011;47216;42.656;23.232;2023-06-04T07:01:05;11.30;;;7.20;;
61344;SDS011;47216;42.656;23.232;2023-06-04T07:03:32;13.30;;;7.03;;
61344;SDS011;47216;42.656;23.232;2023-06-04T07:05:58;10.20;;;7.03;;
61344;SDS011;47216;42.656;23.232;2023-06-04T07:08:25;7.17;;;6.43;;
61344;SDS011;47216;42.656;23.232;2023-06-04T07:10:54;12.63;;;6.73;;
61344;SDS011;47216;42.656;23.232;2023-06-04T07:13:21;10.97;;;6.33;;
61344;SDS011;47216;42.656;23.232;2023-06-04T07:15:48;9.37;;;6.87;;
61344;SDS011;47216;42.656;23.232;2023-06-04T07:18:15;11.77;;;6.90;;
61344;SDS011;47216;42.656;23.232;2023-06-04T07:20:42;8.67;;;6.27;;
61344;SDS011;47216;42.656;23.232;2023-06-04T07:23:09;11.00;;;6.43;;
61344;SDS011;47216;42.656;23.232;2023-06-04T07:25:36;11.43;;;6.57;;
61344;SDS011;47216;42.656;23.232;2023-06-04T07:28:05;8.30;;;5.83;;
61344;SDS011;47216;42.656;23.232;2023-06-04T07:30:32;7.20;;;5.77;;
61344;SDS011;47216;42.656;23.232;2023-06-04T07:32:58;7.13;;;6.20;;
61344;SDS011;47216;42.656;23.232;2023-06-04T07:35:25;17.03;;;6.30;;
61344;SDS011;47216;42.656;23.232;2023-06-04T07:37:52;10.63;;;5.93;;
61344;SDS011;47216;42.656;23.232;2023-06-04T07:40:19;10.43;;;6.27;;
61344;SDS011;47216;42.656;23.232;2023-06-04T07:42:46;9.10;;;6.07;;
61344;SDS011;47216;42.656;23.232;2023-06-04T07:45:15;11.50;;;6.40;;
61344;SDS011;47216;42.656;23.232;2023-06-04T07:47:42;9.43;;;5.97;;
61344;SDS011;47216;42.656;23.232;2023-06-04T07:50:09;9.17;;;6.00;;
61344;SDS011;47216;42.656;23.232;2023-06-04T07:52:36;9.17;;;5.33;;
61344;SDS011;47216;42.656;23.232;2023-06-04T07:55:03;7.27;;;5.90;;
61344;SDS011;47216;42.656;23.232;2023-06-04T07:57:31;9.33;;;6.07;;
61344;SDS011;47216;42.656;23.232;2023-06-04T07:59:58;9.17;;;6.17;;
61344;SDS011;47216;42.656;23.232;2023-06-04T08:02:26;8.27;;;6.67;;
61344;SDS011;47216;42.656;23.232;2023-06-04T08:04:53;8.60;;;6.67;;
61344;SDS011;47216;42.656;23.232;2023-06-04T08:07:19;11.20;;;6.13;;
61344;SDS011;47216;42.656;23.232;2023-06-04T08:09:46;10.10;;;6.63;;
61344;SDS011;47216;42.656;23.232;2023-06-04T08:12:14;9.60;;;6.77;;
61344;SDS011;47216;42.656;23.232;2023-06-04T08:14:41;10.07;;;6.93;;
61344;SDS011;47216;42.656;23.232;2023-06-04T08:17:08;10.53;;;6.63;;
61344;SDS011;47216;42.656;23.232;2023-06-04T08:19:37;8.70;;;6.67;;
61344;SDS011;47216;42.656;23.232;2023-06-04T08:22:04;11.03;;;7.10;;
61344;SDS011;47216;42.656;23.232;2023-06-04T08:24:31;11.40;;;7.20;;
61344;SDS011;47216;42.656;23.232;2023-06-04T08:26:58;12.17;;;7.33;;
61344;SDS011;47216;42.656;23.232;2023-06-04T08:29:25;12.00;;;7.50;;
61344;SDS011;47216;42.656;23.232;2023-06-04T08:31:52;11.73;;;7.27;;
61344;SDS011;47216;42.656;23.232;2023-06-04T08:34:18;12.27;;;7.60;;
61344;SDS011;47216;42.656;23.232;2023-06-04T08:36:47;10.87;;;7.03;;
61344;SDS011;47216;42.656;23.232;2023-06-04T08:39:14;9.60;;;7.67;;
61344;SDS011;47216;42.656;23.232;2023-06-04T08:41:42;11.83;;;7.37;;
61344;SDS011;47216;42.656;23.232;2023-06-04T08:44:10;11.30;;;7.67;;
61344;SDS011;47216;42.656;23.232;2023-06-04T08:46:38;9.23;;;7.33;;
61344;SDS011;47216;42.656;23.232;2023-06-04T08:49:06;10.20;;;7.60;;
61344;SDS011;47216;42.656;23.232;2023-06-04T08:51:34;10.50;;;8.00;;
61344;SDS011;47216;42.656;23.232;2023-06-04T08:54:05;13.13;;;6.70;;
61344;SDS011;47216;42.656;23.232;2023-06-04T08:56:33;12.57;;;8.03;;
61344;SDS011;47216;42.656;23.232;2023-06-04T08:59:01;12.57;;;8.47;;
61344;SDS011;47216;42.656;23.232;2023-06-04T09:01:31;13.27;;;7.67;;
61344;SDS011;47216;42.656;23.232;2023-06-04T09:03:58;15.13;;;8.43;;
61344;SDS011;47216;42.656;23.232;2023-06-04T09:06:26;16.03;;;8.87;;
61344;SDS011;47216;42.656;23.232;2023-06-04T09:08:54;10.73;;;7.47;;
61344;SDS011;47216;42.656;23.232;2023-06-04T09:11:25;10.50;;;7.73;;
61344;SDS011;47216;42.656;23.232;2023-06-04T09:13:53;11.63;;;8.57;;
61344;SDS011;47216;42.656;23.232;2023-06-04T09:16:27;12.23;;;8.87;;
61344;SDS011;47216;42.656;23.232;2023-06-04T09:19:01;13.47;;;8.60;;
61344;SDS011;47216;42.656;23.232;2023-06-04T09:21:29;13.50;;;8.73;;
61344;SDS011;47216;42.656;23.232;2023-06-04T09:23:57;13.00;;;8.30;;
61344;SDS011;47216;42.656;23.232;2023-06-04T09:26:25;12.87;;;7.80;;
61344;SDS011;47216;42.656;23.232;2023-06-04T09:28:52;12.97;;;8.10;;
61344;SDS011;47216;42.656;23.232;2023-06-04T09:31:22;17.80;;;8.27;;
61344;SDS011;47216;42.656;23.232;2023-06-04T09:33:51;11.83;;;7.70;;
61344;SDS011;47216;42.656;23.232;2023-06-04T09:36:18;12.37;;;8.10;;
61344;SDS011;47216;42.656;23.232;2023-06-04T09:38:45;15.47;;;8.33;;
61344;SDS011;47216;42.656;23.232;2023-06-04T09:41:13;13.73;;;8.30;;
61344;SDS011;47216;42.656;23.232;2023-06-04T09:43:41;12.33;;;8.73;;
61344;SDS011;47216;42.656;23.232;2023-06-04T09:46:12;13.43;;;8.27;;
61344;SDS011;47216;42.656;23.232;2023-06-04T09:48:40;10.80;;;8.07;;
61344;SDS011;47216;42.656;23.232;2023-06-04T09:51:08;11.13;;;7.57;;
61344;SDS011;47216;42.656;23.232;2023-06-04T09:53:36;12.63;;;8.07;;
61344;SDS011;47216;42.656;23.232;2023-06-04T09:56:03;10.67;;;8.07;;
61344;SDS011;47216;42.656;23.232;2023-06-04T09:58:31;16.77;;;8.10;;
61344;SDS011;47216;42.656;23.232;2023-06-04T10:01:03;11.60;;;7.32;;
61344;SDS011;47216;42.656;23.232;2023-06-04T10:03:31;10.52;;;7.55;;
61344;SDS011;47216;42.656;23.232;2023-06-04T10:06:01;12.40;;;7.20;;
61344;SDS011;47216;42.656;23.232;2023-06-04T10:08:29;15.73;;;8.27;;
61344;SDS011;47216;42.656;23.232;2023-06-04T10:10:58;9.18;;;7.05;;
61344;SDS011;47216;42.656;23.232;2023-06-04T10:13:27;10.20;;;7.10;;
61344;SDS011;47216;42.656;23.232;2023-06-04T10:15:56;10.05;;;7.00;;
61344;SDS011;47216;42.656;23.232;2023-06-04T10:18:26;12.93;;;7.67;;
61344;SDS011;47216;42.656;23.232;2023-06-04T10:20:54;14.97;;;8.50;;
61344;SDS011;47216;42.656;23.232;2023-06-04T10:23:21;12.63;;;8.20;;
61344;SDS011;47216;42.656;23.232;2023-06-04T10:25:49;14.52;;;8.75;;
61344;SDS011;47216;42.656;23.232;2023-06-04T10:28:18;9.35;;;7.45;;
61344;SDS011;47216;42.656;23.232;2023-06-04T10:30:45;15.60;;;8.93;;
61344;SDS011;47216;42.656;23.232;2023-06-04T10:33:15;12.70;;;7.95;;
61344;SDS011;47216;42.656;23.232;2023-06-04T10:35:44;11.25;;;7.20;;
61344;SDS011;47216;42.656;23.232;2023-06-04T10:38:11;12.77;;;7.78;;
61344;SDS011;47216;42.656;23.232;2023-06-04T10:40:41;13.55;;;7.82;;
61344;SDS011;47216;42.656;23.232;2023-06-04T10:43:09;11.98;;;8.25;;
61344;SDS011;47216;42.656;23.232;2023-06-04T10:45:36;13.30;;;7.93;;
61344;SDS011;47216;42.656;23.232;2023-06-04T10:48:04;9.73;;;7.43;;
61344;SDS011;47216;42.656;23.232;2023-06-04T10:50:32;11.65;;;7.07;;
61344;SDS011;47216;42.656;23.232;2023-06-04T10:53:01;11.82;;;7.63;;
61344;SDS011;47216;42.656;23.232;2023-06-04T10:55:29;10.38;;;7.13;;
61344;SDS011;47216;42.656;23.232;2023-06-04T10:57:57;9.57;;;7.28;;
61344;SDS011;47216;42.656;23.232;2023-06-04T11:00:34;11.65;;;6.82;;
61344;SDS011;47216;42.656;23.232;2023-06-04T11:03:01;10.55;;;7.07;;
61344;SDS011;47216;42.656;23.232;2023-06-04T11:05:33;9.15;;;6.57;;
61344;SDS011;47216;42.656;23.232;2023-06-04T11:08:02;10.73;;;6.45;;
61344;SDS011;47216;42.656;23.232;2023-06-04T11:10:33;12.10;;;7.45;;
61344;SDS011;47216;42.656;23.232;2023-06-04T11:13:01;13.38;;;7.15;;
61344;SDS011;47216;42.656;23.232;2023-06-04T11:15:37;11.23;;;7.18;;
61344;SDS011;47216;42.656;23.232;2023-06-04T11:18:04;9.57;;;7.10;;
61344;SDS011;47216;42.656;23.232;2023-06-04T11:20:31;10.77;;;6.60;;
61344;SDS011;47216;42.656;23.232;2023-06-04T11:22:58;15.25;;;6.88;;
61344;SDS011;47216;42.656;23.232;2023-06-04T11:25:29;9.60;;;6.95;;
61344;SDS011;47216;42.656;23.232;2023-06-04T11:27:58;8.55;;;6.70;;
61344;SDS011;47216;42.656;23.232;2023-06-04T11:30:26;10.27;;;7.15;;
61344;SDS011;47216;42.656;23.232;2023-06-04T11:33:00;12.18;;;6.82;;
61344;SDS011;47216;42.656;23.232;2023-06-04T11:35:27;9.93;;;6.85;;
61344;SDS011;47216;42.656;23.232;2023-06-04T11:37:55;13.15;;;7.15;;
61344;SDS011;47216;42.656;23.232;2023-06-04T11:40:23;9.32;;;6.50;;
61344;SDS011;47216;42.656;23.232;2023-06-04T11:42:53;8.98;;;6.35;;
61344;SDS011;47216;42.656;23.232;2023-06-04T11:45:21;10.40;;;6.43;;
61344;SDS011;47216;42.656;23.232;2023-06-04T11:47:49;9.32;;;6.22;;
61344;SDS011;47216;42.656;23.232;2023-06-04T11:50:18;10.98;;;6.75;;
61344;SDS011;47216;42.656;23.232;2023-06-04T11:52:45;7.22;;;6.28;;
61344;SDS011;47216;42.656;23.232;2023-06-04T11:55:13;9.35;;;6.47;;
61344;SDS011;47216;42.656;23.232;2023-06-04T11:57:40;7.55;;;6.30;;
61344;SDS011;47216;42.656;23.232;2023-06-04T12:00:10;8.25;;;6.28;;
61344;SDS011;47216;42.656;23.232;2023-06-04T12:02:38;7.70;;;6.70;;
61344;SDS011;47216;42.656;23.232;2023-06-04T12:05:14;9.30;;;6.15;;
61344;SDS011;47216;42.656;23.232;2023-06-04T12:07:43;8.88;;;6.05;;
61344;SDS011;47216;42.656;23.232;2023-06-04T12:10:11;10.32;;;6.05;;
61344;SDS011;47216;42.656;23.232;2023-06-04T12:12:38;10.25;;;5.95;;
61344;SDS011;47216;42.656;23.232;2023-06-04T12:15:07;8.07;;;6.35;;
61344;SDS011;47216;42.656;23.232;2023-06-04T12:17:36;9.30;;;6.40;;
61344;SDS011;47216;42.656;23.232;2023-06-04T12:20:04;9.20;;;6.45;;
61344;SDS011;47216;42.656;23.232;2023-06-04T12:22:31;11.35;;;6.47;;
61344;SDS011;47216;42.656;23.232;2023-06-04T12:24:58;8.65;;;6.28;;
61344;SDS011;47216;42.656;23.232;2023-06-04T12:27:28;7.53;;;6.40;;
61344;SDS011;47216;42.656;23.232;2023-06-04T12:29:58;11.43;;;6.68;;
61344;SDS011;47216;42.656;23.232;2023-06-04T12:32:25;12.13;;;7.18;;
61344;SDS011;47216;42.656;23.232;2023-06-04T12:34:54;8.40;;;6.05;;
61344;SDS011;47216;42.656;23.232;2023-06-04T12:37:22;10.48;;;7.22;;
61344;SDS011;47216;42.656;23.232;2023-06-04T12:39:50;10.73;;;6.47;;
61344;SDS011;47216;42.656;23.232;2023-06-04T12:42:17;8.30;;;6.45;;
61344;SDS011;47216;42.656;23.232;2023-06-04T12:44:45;8.38;;;7.25;;
61344;SDS011;47216;42.656;23.232;2023-06-04T12:47:12;7.65;;;6.85;;
61344;SDS011;47216;42.656;23.232;2023-06-04T12:49:39;8.38;;;7.32;;
61344;SDS011;47216;42.656;23.232;2023-06-04T12:52:08;8.75;;;7.45;;
61344;SDS011;47216;42.656;23.232;2023-06-04T12:54:35;9.90;;;7.22;;
61344;SDS011;47216;42.656;23.232;2023-06-04T12:57:01;12.10;;;7.80;;
61344;SDS011;47216;42.656;23.232;2023-06-04T12:59:28;9.57;;;7.40;;
61344;SDS011;47216;42.656;23.232;2023-06-04T13:01:55;9.30;;;7.45;;
61344;SDS011;47216;42.656;23.232;2023-06-04T13:04:23;8.35;;;7.40;;
61344;SDS011;47216;42.656;23.232;2023-06-04T13:06:50;10.55;;;7.18;;
61344;SDS011;47216;42.656;23.232;2023-06-04T13:09:25;9.52;;;7.47;;
61344;SDS011;47216;42.656;23.232;2023-06-04T13:11:53;9.25;;;8.20;;
61344;SDS011;47216;42.656;23.232;2023-06-04T13:14:20;11.43;;;6.82;;
61344;SDS011;47216;42.656;23.232;2023-06-04T13:16:46;8.43;;;7.28;;
61344;SDS011;47216;42.656;23.232;2023-06-04T13:19:14;9.35;;;7.05;;
61344;SDS011;47216;42.656;23.232;2023-06-04T13:21:40;11.45;;;7.72;;
61344;SDS011;47216;42.656;23.232;2023-06-04T13:24:09;9.63;;;7.80;;
61344;SDS011;47216;42.656;23.232;2023-06-04T13:26:38;9.30;;;7.72;;
61344;SDS011;47216;42.656;23.232;2023-06-04T13:29:07;10.52;;;7.35;;
61344;SDS011;47216;42.656;23.232;2023-06-04T13:31:33;9.95;;;7.65;;
61344;SDS011;47216;42.656;23.232;2023-06-04T13:34:00;10.60;;;8.32;;
61344;SDS011;47216;42.656;23.232;2023-06-04T13:36:27;8.02;;;7.22;;
61344;SDS011;47216;42.656;23.232;2023-06-04T13:38:54;9.95;;;8.23;;
61344;SDS011;47216;42.656;23.232;2023-06-04T13:41:21;9.13;;;8.23;;
61344;SDS011;47216;42.656;23.232;2023-06-04T13:43:49;11.43;;;8.13;;
61344;SDS011;47216;42.656;23.232;2023-06-04T13:46:16;12.20;;;8.35;;
61344;SDS011;47216;42.656;23.232;2023-06-04T13:48:43;13.23;;;9.10;;
61344;SDS011;47216;42.656;23.232;2023-06-04T13:51:10;9.13;;;7.75;;
61344;SDS011;47216;42.656;23.232;2023-06-04T13:53:37;9.23;;;7.90;;
61344;SDS011;47216;42.656;23.232;2023-06-04T13:56:04;23.73;;;18.92;;
61344;SDS011;47216;42.656;23.232;2023-06-04T13:58:31;23.33;;;17.80;;
61344;SDS011;47216;42.656;23.232;2023-06-04T14:00:59;48.70;;;34.05;;
61344;SDS011;47216;42.656;23.232;2023-06-04T14:03:26;10.82;;;8.10;;
61344;SDS011;47216;42.656;23.232;2023-06-04T14:05:53;48.47;;;43.15;;
61344;SDS011;47216;42.656;23.232;2023-06-04T14:08:19;28.83;;;25.08;;
61344;SDS011;47216;42.656;23.232;2023-06-04T14:10:46;7.93;;;7.07;;
61344;SDS011;47216;42.656;23.232;2023-06-04T14:13:13;14.20;;;9.40;;
61344;SDS011;47216;42.656;23.232;2023-06-04T14:15:40;10.13;;;8.70;;
61344;SDS011;47216;42.656;23.232;2023-06-04T14:18:08;10.00;;;7.55;;
61344;SDS011;47216;42.656;23.232;2023-06-04T14:20:35;7.97;;;6.80;;
61344;SDS011;47216;42.656;23.232;2023-06-04T14:23:02;9.23;;;7.35;;
61344;SDS011;47216;42.656;23.232;2023-06-04T14:25:29;8.48;;;6.60;;
61344;SDS011;47216;42.656;23.232;2023-06-04T14:27:57;8.75;;;6.90;;
61344;SDS011;47216;42.656;23.232;2023-06-04T14:30:24;7.30;;;6.60;;
61344;SDS011;47216;42.656;23.232;2023-06-04T14:32:51;10.50;;;7.00;;